sensor_id;sensor_type;location;lat;lon;timestamp;P1;durP1;ratioP1;P2;durP2;ratioP2
24145;SDS011;12308;50.948;4.706;2023-05-07T00:01:28;21.50;;;10.88;;
24145;SDS011;12308;50.948;4.706;2023-05-07T00:03:53;18.58;;;9.55;;
24145;SDS011;12308;50.948;4.706;2023-05-07T00:06:19;15.93;;;8.93;;
24145;SDS011;12308;50.948;4.706;2023-05-07T00:08:45;12.15;;;8.40;;
24145;SDS011;12308;50.948;4.706;2023-05-07T00:11:11;11.60;;;7.97;;
24145;SDS011;12308;50.948;4.706;2023-05-07T00:13:37;14.35;;;8.93;;
24145;SDS011;12308;50.948;4.706;2023-05-07T00:16:03;15.85;;;9.27;;
24145;SDS011;12308;50.948;4.706;2023-05-07T00:18:29;17.92;;;10.43;;
24145;SDS011;12308;50.948;4.706;2023-05-07T00:20:55;18.50;;;9.98;;
24145;SDS011;12308;50.948;4.706;2023-05-07T00:23:21;14.32;;;9.13;;
24145;SDS011;12308;50.948;4.706;2023-05-07T00:25:47;14.93;;;9.75;;
24145;SDS011;12308;50.948;4.706;2023-05-07T00:28:13;20.55;;;9.27;;
24145;SDS011;12308;50.948;4.706;2023-05-07T00:30:38;16.48;;;9.68;;
24145;SDS011;12308;50.948;4.706;2023-05-07T00:33:04;20.65;;;9.65;;
24145;SDS011;12308;50.948;4.706;2023-05-07T00:35:30;16.13;;;9.18;;
24145;SDS011;12308;50.948;4.706;2023-05-07T00:37:56;17.25;;;9.90;;
24145;SDS011;12308;50.948;4.706;2023-05-07T00:40:22;21.67;;;11.02;;
24145;SDS011;12308;50.948;4.706;2023-05-07T00:42:48;21.48;;;10.85;;
24145;SDS011;12308;50.948;4.706;2023-05-07T00:45:14;19.15;;;11.45;;
24145;SDS011;12308;50.948;4.706;2023-05-07T00:47:41;19.92;;;10.73;;
24145;SDS011;12308;50.948;4.706;2023-05-07T00:50:07;17.98;;;10.50;;
24145;SDS011;12308;50.948;4.706;2023-05-07T00:52:36;20.30;;;10.52;;
24145;SDS011;12308;50.948;4.706;2023-05-07T00:55:04;24.27;;;11.27;;
24145;SDS011;12308;50.948;4.706;2023-05-07T00:57:37;20.25;;;10.48;;
24145;SDS011;12308;50.948;4.706;2023-05-07T01:00:06;18.48;;;11.00;;
24145;SDS011;12308;50.948;4.706;2023-05-07T01:02:36;18.40;;;11.10;;
24145;SDS011;12308;50.948;4.706;2023-05-07T01:05:02;15.70;;;11.90;;
24145;SDS011;12308;50.948;4.706;2023-05-07T01:07:31;16.00;;;12.05;;
24145;SDS011;12308;50.948;4.706;2023-05-07T01:09:58;24.70;;;13.40;;
24145;SDS011;12308;50.948;4.706;2023-05-07T01:12:24;19.05;;;13.13;;
24145;SDS011;12308;50.948;4.706;2023-05-07T01:14:51;18.08;;;13.18;;
24145;SDS011;12308;50.948;4.706;2023-05-07T01:17:18;22.20;;;12.80;;
24145;SDS011;12308;50.948;4.706;2023-05-07T01:19:43;25.33;;;13.00;;
24145;SDS011;12308;50.948;4.706;2023-05-07T01:22:09;18.20;;;13.93;;
24145;SDS011;12308;50.948;4.706;2023-05-07T01:24:37;18.88;;;13.77;;
24145;SDS011;12308;50.948;4.706;2023-05-07T01:27:03;22.38;;;13.70;;
24145;SDS011;12308;50.948;4.706;2023-05-07T01:29:29;20.55;;;14.52;;
24145;SDS011;12308;50.948;4.706;2023-05-07T01:31:58;14.52;;;12.70;;
24145;SDS011;12308;50.948;4.706;2023-05-07T01:34:25;17.23;;;13.50;;
24145;SDS011;12308;50.948;4.706;2023-05-07T01:36:54;18.55;;;13.25;;
24145;SDS011;12308;50.948;4.706;2023-05-07T01:39:24;20.77;;;13.20;;
24145;SDS011;12308;50.948;4.706;2023-05-07T01:41:50;24.05;;;14.32;;
24145;SDS011;12308;50.948;4.706;2023-05-07T01:44:16;23.88;;;13.75;;
24145;SDS011;12308;50.948;4.706;2023-05-07T01:46:43;18.75;;;13.98;;
24145;SDS011;12308;50.948;4.706;2023-05-07T01:49:10;19.52;;;14.23;;
24145;SDS011;12308;50.948;4.706;2023-05-07T01:51:36;20.20;;;14.48;;
24145;SDS011;12308;50.948;4.706;2023-05-07T01:54:02;17.23;;;13.50;;
24145;SDS011;12308;50.948;4.706;2023-05-07T01:56:27;17.92;;;13.43;;
24145;SDS011;12308;50.948;4.706;2023-05-07T01:58:53;19.55;;;14.23;;
24145;SDS011;12308;50.948;4.706;2023-05-07T02:01:19;20.48;;;14.52;;
24145;SDS011;12308;50.948;4.706;2023-05-07T02:03:45;22.80;;;16.08;;
24145;SDS011;12308;50.948;4.706;2023-05-07T02:06:10;24.10;;;16.42;;
24145;SDS011;12308;50.948;4.706;2023-05-07T02:08:36;25.15;;;17.00;;
24145;SDS011;12308;50.948;4.706;2023-05-07T02:11:02;23.90;;;17.98;;
24145;SDS011;12308;50.948;4.706;2023-05-07T02:13:29;25.08;;;19.85;;
24145;SDS011;12308;50.948;4.706;2023-05-07T02:15:57;26.38;;;18.10;;
24145;SDS011;12308;50.948;4.706;2023-05-07T02:18:22;24.90;;;19.27;;
24145;SDS011;12308;50.948;4.706;2023-05-07T02:20:48;25.25;;;19.45;;
24145;SDS011;12308;50.948;4.706;2023-05-07T02:23:14;32.53;;;19.23;;
24145;SDS011;12308;50.948;4.706;2023-05-07T02:25:39;29.58;;;19.30;;
24145;SDS011;12308;50.948;4.706;2023-05-07T02:28:05;29.25;;;19.00;;
24145;SDS011;12308;50.948;4.706;2023-05-07T02:30:31;31.92;;;18.40;;
24145;SDS011;12308;50.948;4.706;2023-05-07T02:32:58;22.27;;;17.30;;
24145;SDS011;12308;50.948;4.706;2023-05-07T02:35:26;27.08;;;18.63;;
24145;SDS011;12308;50.948;4.706;2023-05-07T02:37:52;29.42;;;19.13;;
24145;SDS011;12308;50.948;4.706;2023-05-07T02:40:18;28.45;;;19.70;;
24145;SDS011;12308;50.948;4.706;2023-05-07T02:42:43;28.08;;;19.85;;
24145;SDS011;12308;50.948;4.706;2023-05-07T02:45:09;34.45;;;20.27;;
24145;SDS011;12308;50.948;4.706;2023-05-07T02:47:35;28.90;;;20.65;;
24145;SDS011;12308;50.948;4.706;2023-05-07T02:50:01;28.42;;;21.23;;
24145;SDS011;12308;50.948;4.706;2023-05-07T02:52:27;31.45;;;20.63;;
24145;SDS011;12308;50.948;4.706;2023-05-07T02:54:53;27.08;;;20.08;;
24145;SDS011;12308;50.948;4.706;2023-05-07T02:57:19;28.67;;;21.63;;
24145;SDS011;12308;50.948;4.706;2023-05-07T02:59:44;28.90;;;20.23;;
24145;SDS011;12308;50.948;4.706;2023-05-07T03:02:10;30.05;;;20.23;;
24145;SDS011;12308;50.948;4.706;2023-05-07T03:04:36;26.52;;;20.27;;
24145;SDS011;12308;50.948;4.706;2023-05-07T03:07:01;33.67;;;20.45;;
24145;SDS011;12308;50.948;4.706;2023-05-07T03:09:27;24.17;;;19.10;;
24145;SDS011;12308;50.948;4.706;2023-05-07T03:11:53;25.27;;;18.92;;
24145;SDS011;12308;50.948;4.706;2023-05-07T03:14:18;24.75;;;18.45;;
24145;SDS011;12308;50.948;4.706;2023-05-07T03:16:44;27.35;;;19.17;;
24145;SDS011;12308;50.948;4.706;2023-05-07T03:19:10;24.45;;;19.60;;
24145;SDS011;12308;50.948;4.706;2023-05-07T03:21:35;26.45;;;18.88;;
24145;SDS011;12308;50.948;4.706;2023-05-07T03:24:01;24.33;;;18.60;;
24145;SDS011;12308;50.948;4.706;2023-05-07T03:26:27;28.98;;;19.67;;
24145;SDS011;12308;50.948;4.706;2023-05-07T03:28:52;25.13;;;19.67;;
24145;SDS011;12308;50.948;4.706;2023-05-07T03:31:18;27.10;;;21.13;;
24145;SDS011;12308;50.948;4.706;2023-05-07T03:33:51;29.52;;;20.23;;
24145;SDS011;12308;50.948;4.706;2023-05-07T03:36:17;27.73;;;19.85;;
24145;SDS011;12308;50.948;4.706;2023-05-07T03:38:43;27.98;;;20.10;;
24145;SDS011;12308;50.948;4.706;2023-05-07T03:41:09;27.20;;;20.75;;
24145;SDS011;12308;50.948;4.706;2023-05-07T03:43:34;33.13;;;20.40;;
24145;SDS011;12308;50.948;4.706;2023-05-07T03:46:00;27.77;;;20.13;;
24145;SDS011;12308;50.948;4.706;2023-05-07T03:48:26;29.67;;;19.70;;
24145;SDS011;12308;50.948;4.706;2023-05-07T03:50:51;22.63;;;18.25;;
24145;SDS011;12308;50.948;4.706;2023-05-07T03:53:17;25.63;;;20.33;;
24145;SDS011;12308;50.948;4.706;2023-05-07T03:55:42;29.10;;;19.98;;
24145;SDS011;12308;50.948;4.706;2023-05-07T03:58:08;31.38;;;20.55;;
24145;SDS011;12308;50.948;4.706;2023-05-07T04:00:34;24.10;;;20.33;;
24145;SDS011;12308;50.948;4.706;2023-05-07T04:03:03;31.63;;;20.77;;
24145;SDS011;12308;50.948;4.706;2023-05-07T04:05:30;27.83;;;19.42;;
24145;SDS011;12308;50.948;4.706;2023-05-07T04:07:57;29.35;;;21.20;;
24145;SDS011;12308;50.948;4.706;2023-05-07T04:10:23;27.55;;;20.52;;
24145;SDS011;12308;50.948;4.706;2023-05-07T04:12:49;27.20;;;20.38;;
24145;SDS011;12308;50.948;4.706;2023-05-07T04:15:15;27.55;;;20.42;;
24145;SDS011;12308;50.948;4.706;2023-05-07T04:17:41;29.67;;;20.75;;
24145;SDS011;12308;50.948;4.706;2023-05-07T04:20:10;28.25;;;21.35;;
24145;SDS011;12308;50.948;4.706;2023-05-07T04:22:39;26.52;;;20.20;;
24145;SDS011;12308;50.948;4.706;2023-05-07T04:25:04;28.38;;;21.50;;
24145;SDS011;12308;50.948;4.706;2023-05-07T04:27:31;32.40;;;21.08;;
24145;SDS011;12308;50.948;4.706;2023-05-07T04:29:57;30.35;;;21.42;;
24145;SDS011;12308;50.948;4.706;2023-05-07T04:32:23;23.40;;;19.67;;
24145;SDS011;12308;50.948;4.706;2023-05-07T04:34:50;31.58;;;20.85;;
24145;SDS011;12308;50.948;4.706;2023-05-07T04:37:15;26.10;;;19.92;;
24145;SDS011;12308;50.948;4.706;2023-05-07T04:39:42;30.02;;;20.15;;
24145;SDS011;12308;50.948;4.706;2023-05-07T04:42:07;27.35;;;20.45;;
24145;SDS011;12308;50.948;4.706;2023-05-07T04:44:34;27.67;;;19.92;;
24145;SDS011;12308;50.948;4.706;2023-05-07T04:47:02;25.08;;;18.75;;
24145;SDS011;12308;50.948;4.706;2023-05-07T04:49:27;29.50;;;19.60;;
24145;SDS011;12308;50.948;4.706;2023-05-07T04:51:53;24.15;;;19.63;;
24145;SDS011;12308;50.948;4.706;2023-05-07T04:54:19;27.60;;;19.17;;
24145;SDS011;12308;50.948;4.706;2023-05-07T04:56:45;23.73;;;18.92;;
24145;SDS011;12308;50.948;4.706;2023-05-07T04:59:10;23.00;;;18.10;;
24145;SDS011;12308;50.948;4.706;2023-05-07T05:01:36;25.10;;;17.48;;
24145;SDS011;12308;50.948;4.706;2023-05-07T05:04:02;33.42;;;18.40;;
24145;SDS011;12308;50.948;4.706;2023-05-07T05:06:28;27.63;;;18.65;;
24145;SDS011;12308;50.948;4.706;2023-05-07T05:08:54;27.73;;;19.90;;
24145;SDS011;12308;50.948;4.706;2023-05-07T05:11:20;26.55;;;20.05;;
24145;SDS011;12308;50.948;4.706;2023-05-07T05:13:46;23.88;;;19.90;;
24145;SDS011;12308;50.948;4.706;2023-05-07T05:16:14;29.90;;;19.77;;
24145;SDS011;12308;50.948;4.706;2023-05-07T05:18:40;28.25;;;20.48;;
24145;SDS011;12308;50.948;4.706;2023-05-07T05:21:06;25.38;;;20.65;;
24145;SDS011;12308;50.948;4.706;2023-05-07T05:23:32;24.70;;;20.02;;
24145;SDS011;12308;50.948;4.706;2023-05-07T05:25:57;26.67;;;20.15;;
24145;SDS011;12308;50.948;4.706;2023-05-07T05:28:23;23.83;;;19.75;;
24145;SDS011;12308;50.948;4.706;2023-05-07T05:30:49;28.10;;;20.58;;
24145;SDS011;12308;50.948;4.706;2023-05-07T05:33:15;30.90;;;21.05;;
24145;SDS011;12308;50.948;4.706;2023-05-07T05:35:41;23.48;;;19.13;;
24145;SDS011;12308;50.948;4.706;2023-05-07T05:38:07;25.77;;;19.73;;
24145;SDS011;12308;50.948;4.706;2023-05-07T05:40:33;24.38;;;19.60;;
24145;SDS011;12308;50.948;4.706;2023-05-07T05:42:59;26.67;;;19.13;;
24145;SDS011;12308;50.948;4.706;2023-05-07T05:45:25;31.33;;;19.88;;
24145;SDS011;12308;50.948;4.706;2023-05-07T05:47:51;25.50;;;19.45;;
24145;SDS011;12308;50.948;4.706;2023-05-07T05:50:16;30.90;;;19.30;;
24145;SDS011;12308;50.948;4.706;2023-05-07T05:52:42;24.88;;;18.60;;
24145;SDS011;12308;50.948;4.706;2023-05-07T05:55:08;24.85;;;20.40;;
24145;SDS011;12308;50.948;4.706;2023-05-07T05:57:34;32.42;;;20.95;;
24145;SDS011;12308;50.948;4.706;2023-05-07T06:00:00;26.58;;;19.77;;
24145;SDS011;12308;50.948;4.706;2023-05-07T06:02:27;25.27;;;20.02;;
24145;SDS011;12308;50.948;4.706;2023-05-07T06:04:53;29.02;;;20.80;;
24145;SDS011;12308;50.948;4.706;2023-05-07T06:07:19;24.15;;;20.95;;
24145;SDS011;12308;50.948;4.706;2023-05-07T06:09:44;29.02;;;21.88;;
24145;SDS011;12308;50.948;4.706;2023-05-07T06:12:11;28.50;;;21.65;;
24145;SDS011;12308;50.948;4.706;2023-05-07T06:14:37;28.15;;;22.25;;
24145;SDS011;12308;50.948;4.706;2023-05-07T06:17:02;34.28;;;22.75;;
24145;SDS011;12308;50.948;4.706;2023-05-07T06:19:28;28.55;;;21.85;;
24145;SDS011;12308;50.948;4.706;2023-05-07T06:21:54;28.67;;;22.80;;
24145;SDS011;12308;50.948;4.706;2023-05-07T06:24:21;30.23;;;22.35;;
24145;SDS011;12308;50.948;4.706;2023-05-07T06:26:47;31.02;;;22.98;;
24145;SDS011;12308;50.948;4.706;2023-05-07T06:29:13;26.88;;;21.77;;
24145;SDS011;12308;50.948;4.706;2023-05-07T06:31:39;26.27;;;21.27;;
24145;SDS011;12308;50.948;4.706;2023-05-07T06:34:05;27.70;;;22.25;;
24145;SDS011;12308;50.948;4.706;2023-05-07T06:36:31;34.40;;;21.17;;
24145;SDS011;12308;50.948;4.706;2023-05-07T06:38:56;27.33;;;20.77;;
24145;SDS011;12308;50.948;4.706;2023-05-07T06:41:22;30.67;;;21.52;;
24145;SDS011;12308;50.948;4.706;2023-05-07T06:43:48;25.48;;;20.42;;
24145;SDS011;12308;50.948;4.706;2023-05-07T06:46:13;30.10;;;20.42;;
24145;SDS011;12308;50.948;4.706;2023-05-07T06:48:40;27.67;;;20.40;;
24145;SDS011;12308;50.948;4.706;2023-05-07T06:51:05;29.40;;;21.60;;
24145;SDS011;12308;50.948;4.706;2023-05-07T06:53:31;31.90;;;22.15;;
24145;SDS011;12308;50.948;4.706;2023-05-07T06:55:57;33.25;;;21.92;;
24145;SDS011;12308;50.948;4.706;2023-05-07T06:58:22;27.90;;;22.00;;
24145;SDS011;12308;50.948;4.706;2023-05-07T07:00:48;28.40;;;22.25;;
24145;SDS011;12308;50.948;4.706;2023-05-07T07:03:14;30.05;;;21.80;;
24145;SDS011;12308;50.948;4.706;2023-05-07T07:05:40;32.85;;;21.95;;
24145;SDS011;12308;50.948;4.706;2023-05-07T07:08:07;30.70;;;21.50;;
24145;SDS011;12308;50.948;4.706;2023-05-07T07:10:33;28.40;;;21.92;;
24145;SDS011;12308;50.948;4.706;2023-05-07T07:12:58;31.92;;;21.70;;
24145;SDS011;12308;50.948;4.706;2023-05-07T07:15:24;29.10;;;19.92;;
24145;SDS011;12308;50.948;4.706;2023-05-07T07:17:50;31.75;;;19.02;;
24145;SDS011;12308;50.948;4.706;2023-05-07T07:20:16;29.30;;;17.75;;
24145;SDS011;12308;50.948;4.706;2023-05-07T07:22:42;24.83;;;17.38;;
24145;SDS011;12308;50.948;4.706;2023-05-07T07:25:08;27.60;;;16.10;;
24145;SDS011;12308;50.948;4.706;2023-05-07T07:27:34;25.55;;;16.27;;
24145;SDS011;12308;50.948;4.706;2023-05-07T07:30:01;21.52;;;14.90;;
24145;SDS011;12308;50.948;4.706;2023-05-07T07:32:26;24.42;;;14.55;;
24145;SDS011;12308;50.948;4.706;2023-05-07T07:34:52;28.13;;;14.23;;
24145;SDS011;12308;50.948;4.706;2023-05-07T07:37:18;28.58;;;13.57;;
24145;SDS011;12308;50.948;4.706;2023-05-07T07:39:43;22.63;;;13.57;;
24145;SDS011;12308;50.948;4.706;2023-05-07T07:42:09;22.63;;;14.00;;
24145;SDS011;12308;50.948;4.706;2023-05-07T07:44:35;27.88;;;13.40;;
24145;SDS011;12308;50.948;4.706;2023-05-07T07:47:00;23.55;;;12.27;;
24145;SDS011;12308;50.948;4.706;2023-05-07T07:49:26;25.88;;;12.95;;
24145;SDS011;12308;50.948;4.706;2023-05-07T07:51:52;26.30;;;12.18;;
24145;SDS011;12308;50.948;4.706;2023-05-07T07:54:18;20.08;;;11.20;;
24145;SDS011;12308;50.948;4.706;2023-05-07T07:56:44;20.20;;;11.13;;
24145;SDS011;12308;50.948;4.706;2023-05-07T07:59:09;22.02;;;11.20;;
24145;SDS011;12308;50.948;4.706;2023-05-07T08:01:35;22.73;;;10.48;;
24145;SDS011;12308;50.948;4.706;2023-05-07T08:04:01;21.42;;;10.85;;
24145;SDS011;12308;50.948;4.706;2023-05-07T08:06:28;21.13;;;10.23;;
24145;SDS011;12308;50.948;4.706;2023-05-07T08:08:54;22.67;;;10.27;;
24145;SDS011;12308;50.948;4.706;2023-05-07T08:11:20;20.88;;;9.98;;
24145;SDS011;12308;50.948;4.706;2023-05-07T08:13:46;25.13;;;11.13;;
24145;SDS011;12308;50.948;4.706;2023-05-07T08:16:13;20.52;;;9.90;;
24145;SDS011;12308;50.948;4.706;2023-05-07T08:18:39;17.70;;;9.60;;
24145;SDS011;12308;50.948;4.706;2023-05-07T08:21:05;19.23;;;9.23;;
24145;SDS011;12308;50.948;4.706;2023-05-07T08:23:30;14.93;;;9.02;;
24145;SDS011;12308;50.948;4.706;2023-05-07T08:25:57;16.65;;;7.78;;
24145;SDS011;12308;50.948;4.706;2023-05-07T08:28:22;22.63;;;7.63;;
24145;SDS011;12308;50.948;4.706;2023-05-07T08:30:50;21.05;;;8.13;;
24145;SDS011;12308;50.948;4.706;2023-05-07T08:33:15;19.10;;;8.27;;
24145;SDS011;12308;50.948;4.706;2023-05-07T08:35:41;15.75;;;7.72;;
24145;SDS011;12308;50.948;4.706;2023-05-07T08:38:07;18.05;;;8.40;;
24145;SDS011;12308;50.948;4.706;2023-05-07T08:40:39;20.30;;;8.35;;
24145;SDS011;12308;50.948;4.706;2023-05-07T08:43:06;21.35;;;8.85;;
24145;SDS011;12308;50.948;4.706;2023-05-07T08:45:32;17.98;;;9.40;;
24145;SDS011;12308;50.948;4.706;2023-05-07T08:47:59;22.20;;;9.73;;
24145;SDS011;12308;50.948;4.706;2023-05-07T08:50:27;19.73;;;9.52;;
24145;SDS011;12308;50.948;4.706;2023-05-07T08:52:53;23.25;;;9.65;;
24145;SDS011;12308;50.948;4.706;2023-05-07T08:55:19;17.73;;;9.35;;
24145;SDS011;12308;50.948;4.706;2023-05-07T08:57:45;18.65;;;8.60;;
24145;SDS011;12308;50.948;4.706;2023-05-07T09:00:12;24.40;;;9.90;;
24145;SDS011;12308;50.948;4.706;2023-05-07T09:02:38;19.98;;;10.10;;
24145;SDS011;12308;50.948;4.706;2023-05-07T09:05:04;14.95;;;8.35;;
24145;SDS011;12308;50.948;4.706;2023-05-07T09:07:30;17.58;;;8.55;;
24145;SDS011;12308;50.948;4.706;2023-05-07T09:09:56;22.15;;;9.18;;
24145;SDS011;12308;50.948;4.706;2023-05-07T09:12:22;22.45;;;9.60;;
24145;SDS011;12308;50.948;4.706;2023-05-07T09:14:49;24.50;;;9.93;;
24145;SDS011;12308;50.948;4.706;2023-05-07T09:17:17;18.90;;;9.77;;
24145;SDS011;12308;50.948;4.706;2023-05-07T09:19:44;23.08;;;9.63;;
24145;SDS011;12308;50.948;4.706;2023-05-07T09:22:11;19.48;;;10.13;;
24145;SDS011;12308;50.948;4.706;2023-05-07T09:24:37;23.17;;;9.75;;
24145;SDS011;12308;50.948;4.706;2023-05-07T09:27:03;20.42;;;9.68;;
24145;SDS011;12308;50.948;4.706;2023-05-07T09:29:30;21.70;;;10.00;;
24145;SDS011;12308;50.948;4.706;2023-05-07T09:32:03;18.93;;;10.17;;
24145;SDS011;12308;50.948;4.706;2023-05-07T09:34:30;17.88;;;10.23;;
24145;SDS011;12308;50.948;4.706;2023-05-07T09:36:58;21.65;;;10.75;;
24145;SDS011;12308;50.948;4.706;2023-05-07T09:42:13;19.70;;;9.02;;
24145;SDS011;12308;50.948;4.706;2023-05-07T09:44:45;20.75;;;9.23;;
24145;SDS011;12308;50.948;4.706;2023-05-07T09:47:12;20.88;;;9.25;;
24145;SDS011;12308;50.948;4.706;2023-05-07T09:49:48;16.10;;;9.55;;
24145;SDS011;12308;50.948;4.706;2023-05-07T09:52:15;17.90;;;9.75;;
24145;SDS011;12308;50.948;4.706;2023-05-07T09:54:41;15.40;;;8.45;;
24145;SDS011;12308;50.948;4.706;2023-05-07T09:57:10;15.35;;;8.48;;
24145;SDS011;12308;50.948;4.706;2023-05-07T09:59:37;17.27;;;9.23;;
24145;SDS011;12308;50.948;4.706;2023-05-07T10:02:04;18.02;;;9.80;;
24145;SDS011;12308;50.948;4.706;2023-05-07T10:04:30;21.17;;;9.55;;
24145;SDS011;12308;50.948;4.706;2023-05-07T10:06:56;16.08;;;8.55;;
24145;SDS011;12308;50.948;4.706;2023-05-07T10:09:23;17.48;;;7.60;;
24145;SDS011;12308;50.948;4.706;2023-05-07T10:11:51;20.17;;;7.70;;
24145;SDS011;12308;50.948;4.706;2023-05-07T10:14:17;14.73;;;7.97;;
24145;SDS011;12308;50.948;4.706;2023-05-07T10:16:44;14.13;;;7.32;;
24145;SDS011;12308;50.948;4.706;2023-05-07T10:19:11;14.60;;;6.63;;
24145;SDS011;12308;50.948;4.706;2023-05-07T10:21:37;18.00;;;7.15;;
24145;SDS011;12308;50.948;4.706;2023-05-07T10:24:05;14.30;;;7.50;;
24145;SDS011;12308;50.948;4.706;2023-05-07T10:26:54;13.98;;;7.68;;
24145;SDS011;12308;50.948;4.706;2023-05-07T10:34:42;17.17;;;6.00;;
24145;SDS011;12308;50.948;4.706;2023-05-07T10:37:10;11.70;;;5.32;;
24145;SDS011;12308;50.948;4.706;2023-05-07T10:39:37;11.05;;;5.63;;
24145;SDS011;12308;50.948;4.706;2023-05-07T10:42:09;10.73;;;5.70;;
24145;SDS011;12308;50.948;4.706;2023-05-07T10:44:36;16.65;;;6.50;;
24145;SDS011;12308;50.948;4.706;2023-05-07T10:47:06;16.20;;;7.65;;
24145;SDS011;12308;50.948;4.706;2023-05-07T10:49:34;11.63;;;7.90;;
24145;SDS011;12308;50.948;4.706;2023-05-07T10:52:14;18.10;;;8.82;;
24145;SDS011;12308;50.948;4.706;2023-05-07T10:54:46;16.90;;;9.02;;
24145;SDS011;12308;50.948;4.706;2023-05-07T10:59:57;14.73;;;10.52;;
24145;SDS011;12308;50.948;4.706;2023-05-07T11:02:23;20.70;;;10.35;;
24145;SDS011;12308;50.948;4.706;2023-05-07T11:08:07;16.95;;;6.68;;
24145;SDS011;12308;50.948;4.706;2023-05-07T11:10:48;10.43;;;4.95;;
24145;SDS011;12308;50.948;4.706;2023-05-07T11:13:41;11.32;;;4.85;;
24145;SDS011;12308;50.948;4.706;2023-05-07T11:16:20;15.63;;;5.78;;
24145;SDS011;12308;50.948;4.706;2023-05-07T11:18:49;13.48;;;5.90;;
24145;SDS011;12308;50.948;4.706;2023-05-07T11:21:32;15.30;;;7.10;;
24145;SDS011;12308;50.948;4.706;2023-05-07T11:24:01;15.00;;;7.30;;
24145;SDS011;12308;50.948;4.706;2023-05-07T11:26:29;14.82;;;7.05;;
24145;SDS011;12308;50.948;4.706;2023-05-07T11:28:56;13.10;;;7.00;;
24145;SDS011;12308;50.948;4.706;2023-05-07T11:31:26;13.93;;;6.97;;
24145;SDS011;12308;50.948;4.706;2023-05-07T11:33:53;12.57;;;6.57;;
24145;SDS011;12308;50.948;4.706;2023-05-07T11:36:21;16.33;;;6.70;;
24145;SDS011;12308;50.948;4.706;2023-05-07T11:38:48;15.45;;;5.53;;
24145;SDS011;12308;50.948;4.706;2023-05-07T11:41:14;14.40;;;5.72;;
24145;SDS011;12308;50.948;4.706;2023-05-07T11:43:54;13.15;;;6.60;;
24145;SDS011;12308;50.948;4.706;2023-05-07T11:46:23;14.85;;;6.40;;
24145;SDS011;12308;50.948;4.706;2023-05-07T11:48:49;12.02;;;6.43;;
24145;SDS011;12308;50.948;4.706;2023-05-07T11:51:18;12.30;;;5.55;;
24145;SDS011;12308;50.948;4.706;2023-05-07T11:53:46;11.93;;;5.37;;
24145;SDS011;12308;50.948;4.706;2023-05-07T11:56:12;10.27;;;5.38;;
24145;SDS011;12308;50.948;4.706;2023-05-07T11:58:39;13.70;;;5.70;;
24145;SDS011;12308;50.948;4.706;2023-05-07T12:01:09;13.43;;;6.05;;
24145;SDS011;12308;50.948;4.706;2023-05-07T12:03:42;14.05;;;6.70;;
24145;SDS011;12308;50.948;4.706;2023-05-07T12:06:14;13.93;;;6.55;;
24145;SDS011;12308;50.948;4.706;2023-05-07T12:08:41;14.13;;;5.88;;
24145;SDS011;12308;50.948;4.706;2023-05-07T12:11:13;13.75;;;6.82;;
24145;SDS011;12308;50.948;4.706;2023-05-07T12:13:47;19.70;;;8.68;;
24145;SDS011;12308;50.948;4.706;2023-05-07T12:16:12;17.98;;;8.38;;
24145;SDS011;12308;50.948;4.706;2023-05-07T12:18:39;13.57;;;5.90;;
24145;SDS011;12308;50.948;4.706;2023-05-07T12:21:05;16.52;;;7.97;;
24145;SDS011;12308;50.948;4.706;2023-05-07T12:23:32;13.73;;;6.82;;
24145;SDS011;12308;50.948;4.706;2023-05-07T12:25:59;13.50;;;7.15;;
24145;SDS011;12308;50.948;4.706;2023-05-07T12:28:25;13.30;;;6.40;;
24145;SDS011;12308;50.948;4.706;2023-05-07T12:30:50;12.80;;;6.38;;
24145;SDS011;12308;50.948;4.706;2023-05-07T12:33:18;14.40;;;7.15;;
24145;SDS011;12308;50.948;4.706;2023-05-07T12:35:48;14.68;;;7.20;;
24145;SDS011;12308;50.948;4.706;2023-05-07T12:38:14;12.10;;;6.15;;
24145;SDS011;12308;50.948;4.706;2023-05-07T12:40:42;9.98;;;6.05;;
24145;SDS011;12308;50.948;4.706;2023-05-07T12:43:25;14.82;;;6.05;;
24145;SDS011;12308;50.948;4.706;2023-05-07T12:45:54;15.18;;;5.85;;
24145;SDS011;12308;50.948;4.706;2023-05-07T12:48:20;10.45;;;5.00;;
24145;SDS011;12308;50.948;4.706;2023-05-07T12:50:50;7.60;;;4.40;;
24145;SDS011;12308;50.948;4.706;2023-05-07T12:53:19;9.98;;;4.90;;
24145;SDS011;12308;50.948;4.706;2023-05-07T12:55:50;12.63;;;4.38;;
24145;SDS011;12308;50.948;4.706;2023-05-07T12:58:18;7.55;;;3.40;;
24145;SDS011;12308;50.948;4.706;2023-05-07T13:00:52;6.45;;;2.88;;
24145;SDS011;12308;50.948;4.706;2023-05-07T13:03:32;7.55;;;3.00;;
24145;SDS011;12308;50.948;4.706;2023-05-07T13:06:00;7.82;;;3.08;;
24145;SDS011;12308;50.948;4.706;2023-05-07T13:08:31;15.52;;;3.65;;
24145;SDS011;12308;50.948;4.706;2023-05-07T13:11:06;7.88;;;3.30;;
24145;SDS011;12308;50.948;4.706;2023-05-07T13:13:35;8.30;;;3.33;;
24145;SDS011;12308;50.948;4.706;2023-05-07T13:16:02;6.72;;;3.08;;
24145;SDS011;12308;50.948;4.706;2023-05-07T13:18:29;6.00;;;3.28;;
24145;SDS011;12308;50.948;4.706;2023-05-07T13:20:55;6.68;;;3.83;;
24145;SDS011;12308;50.948;4.706;2023-05-07T13:23:21;9.23;;;4.18;;
24145;SDS011;12308;50.948;4.706;2023-05-07T13:25:47;8.13;;;3.80;;
24145;SDS011;12308;50.948;4.706;2023-05-07T13:28:13;7.30;;;3.63;;
24145;SDS011;12308;50.948;4.706;2023-05-07T13:30:39;10.00;;;4.20;;
24145;SDS011;12308;50.948;4.706;2023-05-07T13:33:08;8.27;;;3.78;;
24145;SDS011;12308;50.948;4.706;2023-05-07T13:35:34;7.15;;;3.40;;
24145;SDS011;12308;50.948;4.706;2023-05-07T13:38:00;8.43;;;3.60;;
24145;SDS011;12308;50.948;4.706;2023-05-07T13:40:25;6.45;;;3.47;;
24145;SDS011;12308;50.948;4.706;2023-05-07T13:42:51;6.53;;;3.38;;
24145;SDS011;12308;50.948;4.706;2023-05-07T13:45:18;8.80;;;4.05;;
24145;SDS011;12308;50.948;4.706;2023-05-07T13:47:45;8.30;;;3.75;;
24145;SDS011;12308;50.948;4.706;2023-05-07T13:50:11;10.18;;;3.83;;
24145;SDS011;12308;50.948;4.706;2023-05-07T13:52:39;8.20;;;3.72;;
24145;SDS011;12308;50.948;4.706;2023-05-07T13:55:08;8.15;;;3.70;;
24145;SDS011;12308;50.948;4.706;2023-05-07T13:57:35;9.10;;;3.42;;
24145;SDS011;12308;50.948;4.706;2023-05-07T14:00:01;7.03;;;3.58;;
24145;SDS011;12308;50.948;4.706;2023-05-07T14:02:29;6.63;;;3.60;;
24145;SDS011;12308;50.948;4.706;2023-05-07T14:04:55;7.93;;;3.95;;
24145;SDS011;12308;50.948;4.706;2023-05-07T14:07:21;5.90;;;3.70;;
24145;SDS011;12308;50.948;4.706;2023-05-07T14:09:47;5.80;;;3.90;;
24145;SDS011;12308;50.948;4.706;2023-05-07T14:12:13;8.23;;;3.67;;
24145;SDS011;12308;50.948;4.706;2023-05-07T14:14:38;9.38;;;4.18;;
24145;SDS011;12308;50.948;4.706;2023-05-07T14:17:04;5.82;;;3.65;;
24145;SDS011;12308;50.948;4.706;2023-05-07T14:19:30;10.82;;;4.32;;
24145;SDS011;12308;50.948;4.706;2023-05-07T14:21:55;9.77;;;3.60;;
24145;SDS011;12308;50.948;4.706;2023-05-07T14:24:21;7.72;;;3.90;;
24145;SDS011;12308;50.948;4.706;2023-05-07T14:26:47;9.00;;;4.43;;
24145;SDS011;12308;50.948;4.706;2023-05-07T14:29:12;11.45;;;4.55;;
24145;SDS011;12308;50.948;4.706;2023-05-07T14:31:40;12.65;;;5.05;;
24145;SDS011;12308;50.948;4.706;2023-05-07T14:34:06;11.65;;;4.60;;
24145;SDS011;12308;50.948;4.706;2023-05-07T14:36:32;10.90;;;5.00;;
24145;SDS011;12308;50.948;4.706;2023-05-07T14:38:57;10.05;;;5.10;;
24145;SDS011;12308;50.948;4.706;2023-05-07T14:41:24;9.18;;;4.95;;